Погода Марабана неделю

Пара, Бразилия

12 - 18 июля
  • 12июля
    Сегодня
    +21°
    +36°
    Небольшая облачность
    ВремяПогодаТемператураВлажностьДавлениеВетер, м/сВероятность осадков
    00:00Облачно с прояснениями+26°C70 %755 мм1.6 м/с5 %
    03:00Пасмурно, сплошная облачность+26°C80 %756 мм1.7 м/с3 %
    06:00Небольшая облачность+23°C85 %756 мм2.0 м/с8 %
    09:00Небольшая облачность+29°C63 %757 мм2.2 м/с5 %
    12:00Практически безоблачно+33°C37 %756 мм5.5 м/с5 %
    15:00Небольшая облачность+36°C32 %754 мм4.6 м/с5 %
    18:00Небольшая облачность+31°C45 %754 мм2.6 м/с5 %
    21:00Практически безоблачно+25°C56 %755 мм0.6 м/с5 %
  • 13июля
    Суббота
    +23°
    +36°
    Облачно с прояснениями
    ВремяПогодаТемператураВлажностьДавлениеВетер, м/сВероятность осадков
    00:00Ясно и безоблачно+24°C66 %756 мм2.0 м/с5 %
    03:00Ясно и безоблачно+23°C77 %755 мм2.1 м/с5 %
    06:00Ясно и безоблачно+22°C73 %755 мм1.6 м/с5 %
    09:00Практически безоблачно+28°C62 %757 мм1.2 м/с5 %
    12:00Небольшая облачность+33°C42 %756 мм4.3 м/с5 %
    15:00Облачно с прояснениями+35°C36 %754 мм4.0 м/с5 %
    18:00Ясно и безоблачно+31°C52 %753 мм1.8 м/с5 %
    21:00Ясно и безоблачно+27°C66 %755 мм0.0 м/с5 %
  • 14июля
    Воскресенье
    +22°
    +36°
    Облачно с прояснениями
    ВремяПогодаТемператураВлажностьДавлениеВетер, м/сВероятность осадков
    00:00Ясно и безоблачно+26°C69 %756 мм2.1 м/с5 %
    03:00Ясно и безоблачно+25°C74 %755 мм2.1 м/с5 %
    06:00Ясно и безоблачно+23°C79 %755 мм1.6 м/с5 %
    09:00Практически безоблачно+28°C63 %757 мм0.9 м/с5 %
    12:00Облачно с прояснениями+33°C39 %756 мм3.9 м/с4 %
    15:00Облачно с прояснениями+35°C33 %754 мм3.1 м/с4 %
    18:00Облачно с прояснениями+32°C46 %754 мм2.1 м/с5 %
    21:00Облачно с прояснениями+26°C57 %755 мм0.0 м/с5 %
  • 15июля
    Понедельник
    +21°
    +36°
    Ясно и безоблачно
    ВремяПогодаТемператураВлажностьДавлениеВетер, м/сВероятность осадков
    00:00Небольшая облачность+26°C61 %756 мм2.1 м/с5 %
    03:00Ясно и безоблачно+24°C73 %755 мм2.0 м/с5 %
    06:00Ясно и безоблачно+23°C74 %756 мм2.2 м/с5 %
    09:00Ясно и безоблачно+28°C52 %757 мм1.7 м/с5 %
    12:00Ясно и безоблачно+33°C36 %757 мм4.1 м/с5 %
    15:00Ясно и безоблачно+35°C32 %754 мм3.4 м/с5 %
    18:00Облачно с прояснениями+32°C43 %754 мм1.9 м/с5 %
    21:00Небольшая облачность+27°C52 %756 мм0.0 м/с5 %
  • 16июля
    Вторник
    +22°
    +36°
    Ясно и безоблачно
    ВремяПогодаТемператураВлажностьДавлениеВетер, м/сВероятность осадков
    00:00Ясно и безоблачно+25°C58 %757 мм2.0 м/с5 %
    03:00Ясно и безоблачно+24°C66 %756 мм2.3 м/с4 %
    06:00Ясно и безоблачно+22°C77 %756 мм2.2 м/с4 %
    09:00Ясно и безоблачно+28°C56 %758 мм1.2 м/с5 %
    12:00Ясно и безоблачно+33°C38 %757 мм4.2 м/с5 %
    15:00Ясно и безоблачно+35°C32 %755 мм4.3 м/с5 %
    18:00Ясно и безоблачно+32°C43 %755 мм2.2 м/с5 %
    21:00Ясно и безоблачно+27°C54 %756 мм0.0 м/с5 %
Мы используем cookies
Соглашаюсь